sensor_id;sensor_type;location;lat;lon;timestamp;pressure;altitude;pressure_sealevel;temperature;humidity
19286;BME280;9776;50.798;6.430;2022-12-18T00:00:42;101358.75;;;-4.52;62.25
19286;BME280;9776;50.798;6.430;2022-12-18T00:03:09;101366.44;;;-4.51;62.20
19286;BME280;9776;50.798;6.430;2022-12-18T00:05:36;101372.47;;;-4.50;62.18
19286;BME280;9776;50.798;6.430;2022-12-18T00:08:02;101375.09;;;-4.53;62.14
19286;BME280;9776;50.798;6.430;2022-12-18T00:10:31;101380.25;;;-4.55;62.17
19286;BME280;9776;50.798;6.430;2022-12-18T00:12:57;101376.00;;;-4.57;62.20
19286;BME280;9776;50.798;6.430;2022-12-18T00:15:24;101372.53;;;-4.55;62.12
19286;BME280;9776;50.798;6.430;2022-12-18T00:17:51;101375.16;;;-4.58;62.16
19286;BME280;9776;50.798;6.430;2022-12-18T00:20:17;101363.19;;;-4.59;62.06
19286;BME280;9776;50.798;6.430;2022-12-18T00:22:50;101368.28;;;-4.57;62.09
19286;BME280;9776;50.798;6.430;2022-12-18T00:25:17;101379.47;;;-4.59;62.08
19286;BME280;9776;50.798;6.430;2022-12-18T00:27:45;101382.94;;;-4.60;61.95
19286;BME280;9776;50.798;6.430;2022-12-18T00:30:12;101376.97;;;-4.63;61.88
19286;BME280;9776;50.798;6.430;2022-12-18T00:32:39;101376.16;;;-4.65;61.98
19286;BME280;9776;50.798;6.430;2022-12-18T00:35:07;101378.00;;;-4.72;62.03
19286;BME280;9776;50.798;6.430;2022-12-18T00:37:34;101378.00;;;-4.72;62.05
19286;BME280;9776;50.798;6.430;2022-12-18T00:40:01;101384.06;;;-4.76;61.96
19286;BME280;9776;50.798;6.430;2022-12-18T00:42:28;101381.59;;;-4.80;62.14
19286;BME280;9776;50.798;6.430;2022-12-18T00:45:30;101378.28;;;-4.87;62.15
19286;BME280;9776;50.798;6.430;2022-12-18T00:47:57;101375.75;;;-4.90;62.20
19286;BME280;9776;50.798;6.430;2022-12-18T00:50:25;101368.06;;;-4.93;62.17
19286;BME280;9776;50.798;6.430;2022-12-18T00:52:52;101371.53;;;-4.94;62.30
19286;BME280;9776;50.798;6.430;2022-12-18T00:55:19;101362.13;;;-4.95;62.21
19286;BME280;9776;50.798;6.430;2022-12-18T00:57:45;101374.94;;;-4.93;62.11
19286;BME280;9776;50.798;6.430;2022-12-18T01:00:14;101376.66;;;-4.92;62.00
19286;BME280;9776;50.798;6.430;2022-12-18T01:02:42;101368.88;;;-4.88;61.96
19286;BME280;9776;50.798;6.430;2022-12-18T01:05:10;101368.06;;;-4.91;61.82
19286;BME280;9776;50.798;6.430;2022-12-18T01:07:37;101370.78;;;-5.00;61.99
19286;BME280;9776;50.798;6.430;2022-12-18T01:10:05;101356.22;;;-5.00;62.17
19286;BME280;9776;50.798;6.430;2022-12-18T01:12:32;101365.59;;;-4.97;62.01
19286;BME280;9776;50.798;6.430;2022-12-18T01:14:59;101373.31;;;-4.99;61.97
19286;BME280;9776;50.798;6.430;2022-12-18T01:17:26;101372.44;;;-4.96;61.91
19286;BME280;9776;50.798;6.430;2022-12-18T01:19:54;101368.19;;;-4.99;61.85
19286;BME280;9776;50.798;6.430;2022-12-18T01:22:21;101375.03;;;-4.98;61.71
19286;BME280;9776;50.798;6.430;2022-12-18T01:24:47;101375.03;;;-4.98;61.71
19286;BME280;9776;50.798;6.430;2022-12-18T01:27:14;101378.53;;;-5.00;61.71
19286;BME280;9776;50.798;6.430;2022-12-18T01:29:41;101365.66;;;-5.02;61.57
19286;BME280;9776;50.798;6.430;2022-12-18T01:32:07;101373.31;;;-4.99;61.67
19286;BME280;9776;50.798;6.430;2022-12-18T01:34:35;101365.59;;;-4.99;61.70
19286;BME280;9776;50.798;6.430;2022-12-18T01:37:04;101363.03;;;-4.99;61.59
19286;BME280;9776;50.798;6.430;2022-12-18T01:39:31;101362.25;;;-5.02;61.69
19286;BME280;9776;50.798;6.430;2022-12-18T01:41:58;101361.41;;;-5.03;61.64
19286;BME280;9776;50.798;6.430;2022-12-18T01:44:54;101363.09;;;-5.02;61.67
19286;BME280;9776;50.798;6.430;2022-12-18T01:47:24;101359.59;;;-4.98;61.57
19286;BME280;9776;50.798;6.430;2022-12-18T01:49:52;101362.97;;;-4.96;61.52
19286;BME280;9776;50.798;6.430;2022-12-18T01:52:21;101358.63;;;-4.92;61.40
19286;BME280;9776;50.798;6.430;2022-12-18T01:54:49;101366.41;;;-4.94;61.54
19286;BME280;9776;50.798;6.430;2022-12-18T01:57:17;101363.88;;;-4.97;61.61
19286;BME280;9776;50.798;6.430;2022-12-18T01:59:46;101362.13;;;-4.95;61.52
19286;BME280;9776;50.798;6.430;2022-12-18T02:02:16;101363.81;;;-4.94;61.57
19286;BME280;9776;50.798;6.430;2022-12-18T02:04:43;101356.03;;;-4.91;61.63
19286;BME280;9776;50.798;6.430;2022-12-18T02:07:16;101361.19;;;-4.92;61.65
19286;BME280;9776;50.798;6.430;2022-12-18T02:09:49;101353.47;;;-4.91;61.67
19286;BME280;9776;50.798;6.430;2022-12-18T02:12:19;101362.16;;;-4.98;61.93
19286;BME280;9776;50.798;6.430;2022-12-18T02:14:55;101367.56;;;-5.11;62.29
19286;BME280;9776;50.798;6.430;2022-12-18T02:17:32;101367.56;;;-5.11;62.32
19286;BME280;9776;50.798;6.430;2022-12-18T02:20:06;101355.59;;;-5.14;62.45
19286;BME280;9776;50.798;6.430;2022-12-18T02:22:48;101348.63;;;-5.09;62.24
19286;BME280;9776;50.798;6.430;2022-12-18T02:25:28;101348.59;;;-5.06;62.25
19286;BME280;9776;50.798;6.430;2022-12-18T02:28:04;101343.41;;;-5.04;62.10
19286;BME280;9776;50.798;6.430;2022-12-18T02:30:35;101344.25;;;-5.04;62.13
19286;BME280;9776;50.798;6.430;2022-12-18T02:33:05;101345.09;;;-5.03;62.15
19286;BME280;9776;50.798;6.430;2022-12-18T02:35:34;101345.13;;;-5.05;62.15
19286;BME280;9776;50.798;6.430;2022-12-18T02:38:03;101346.91;;;-5.08;62.17
19286;BME280;9776;50.798;6.430;2022-12-18T02:40:30;101342.69;;;-5.11;62.15
19286;BME280;9776;50.798;6.430;2022-12-18T02:43:07;101355.53;;;-5.11;62.23
19286;BME280;9776;50.798;6.430;2022-12-18T02:45:33;101349.56;;;-5.13;62.16
19286;BME280;9776;50.798;6.430;2022-12-18T02:48:01;101350.41;;;-5.11;62.16
19286;BME280;9776;50.798;6.430;2022-12-18T02:50:31;101340.97;;;-5.12;62.25
19286;BME280;9776;50.798;6.430;2022-12-18T02:53:09;101345.22;;;-5.09;62.24
19286;BME280;9776;50.798;6.430;2022-12-18T02:55:48;101338.34;;;-5.10;62.28
19286;BME280;9776;50.798;6.430;2022-12-18T02:58:23;101334.09;;;-5.11;62.22
19286;BME280;9776;50.798;6.430;2022-12-18T03:00:58;101335.78;;;-5.10;62.26
19286;BME280;9776;50.798;6.430;2022-12-18T03:03:29;101340.91;;;-5.09;62.32
19286;BME280;9776;50.798;6.430;2022-12-18T03:06:03;101338.28;;;-5.06;62.41
19286;BME280;9776;50.798;6.430;2022-12-18T03:08:35;101340.81;;;-5.04;62.42
19286;BME280;9776;50.798;6.430;2022-12-18T03:11:06;101345.09;;;-5.03;62.34
19286;BME280;9776;50.798;6.430;2022-12-18T03:13:38;101338.28;;;-5.06;62.29
19286;BME280;9776;50.798;6.430;2022-12-18T03:16:10;101327.22;;;-5.11;62.49
19286;BME280;9776;50.798;6.430;2022-12-18T03:18:39;101324.63;;;-5.09;62.54
19286;BME280;9776;50.798;6.430;2022-12-18T03:21:09;101315.22;;;-5.12;62.57
19286;BME280;9776;50.798;6.430;2022-12-18T03:23:40;101316.09;;;-5.11;62.60
19286;BME280;9776;50.798;6.430;2022-12-18T03:26:12;101311.78;;;-5.11;62.55
19286;BME280;9776;50.798;6.430;2022-12-18T03:28:46;101310.09;;;-5.12;62.64
19286;BME280;9776;50.798;6.430;2022-12-18T03:31:16;101308.38;;;-5.11;62.66
19286;BME280;9776;50.798;6.430;2022-12-18T03:33:47;101319.53;;;-5.12;62.55
19286;BME280;9776;50.798;6.430;2022-12-18T03:36:17;101314.38;;;-5.12;62.61
19286;BME280;9776;50.798;6.430;2022-12-18T03:38:44;101308.31;;;-5.10;62.61
19286;BME280;9776;50.798;6.430;2022-12-18T03:41:16;101306.66;;;-5.11;62.56
19286;BME280;9776;50.798;6.430;2022-12-18T03:43:50;101306.59;;;-5.09;62.61
19286;BME280;9776;50.798;6.430;2022-12-18T03:46:26;101297.13;;;-5.07;62.67
19286;BME280;9776;50.798;6.430;2022-12-18T03:48:59;101291.97;;;-5.06;62.60
19286;BME280;9776;50.798;6.430;2022-12-18T03:51:34;101292.88;;;-5.10;62.81
19286;BME280;9776;50.798;6.430;2022-12-18T03:54:05;101289.50;;;-5.12;62.93
19286;BME280;9776;50.798;6.430;2022-12-18T03:56:36;101288.63;;;-5.12;62.93
19286;BME280;9776;50.798;6.430;2022-12-18T03:59:08;101292.06;;;-5.13;62.86
19286;BME280;9776;50.798;6.430;2022-12-18T04:01:39;101285.19;;;-5.11;62.90
19286;BME280;9776;50.798;6.430;2022-12-18T04:04:08;101278.34;;;-5.12;63.06
19286;BME280;9776;50.798;6.430;2022-12-18T04:06:37;101284.25;;;-5.06;63.02
19286;BME280;9776;50.798;6.430;2022-12-18T04:09:05;101281.59;;;-5.03;62.97
19286;BME280;9776;50.798;6.430;2022-12-18T04:11:32;101281.72;;;-5.09;62.97
19286;BME280;9776;50.798;6.430;2022-12-18T04:13:58;101277.47;;;-5.11;63.10
19286;BME280;9776;50.798;6.430;2022-12-18T04:16:27;101279.25;;;-5.15;63.34
19286;BME280;9776;50.798;6.430;2022-12-18T04:18:53;101276.72;;;-5.18;63.32
19286;BME280;9776;50.798;6.430;2022-12-18T04:21:20;101275.88;;;-5.17;63.27
19286;BME280;9776;50.798;6.430;2022-12-18T04:23:48;101270.78;;;-5.20;63.50
19286;BME280;9776;50.798;6.430;2022-12-18T04:26:15;101267.31;;;-5.19;63.39
19286;BME280;9776;50.798;6.430;2022-12-18T04:28:41;101266.44;;;-5.17;63.32
19286;BME280;9776;50.798;6.430;2022-12-18T04:31:08;101277.50;;;-5.13;63.32
19286;BME280;9776;50.798;6.430;2022-12-18T04:33:36;101272.41;;;-5.16;63.33
19286;BME280;9776;50.798;6.430;2022-12-18T04:36:03;101279.25;;;-5.15;63.33
19286;BME280;9776;50.798;6.430;2022-12-18T04:38:30;101277.53;;;-5.16;63.35
19286;BME280;9776;50.798;6.430;2022-12-18T04:40:57;101269.06;;;-5.21;63.31
19286;BME280;9776;50.798;6.430;2022-12-18T04:43:24;101265.63;;;-5.20;63.33
19286;BME280;9776;50.798;6.430;2022-12-18T04:45:51;101249.28;;;-5.18;63.37
19286;BME280;9776;50.798;6.430;2022-12-18T04:48:18;101251.75;;;-5.13;63.31
19286;BME280;9776;50.798;6.430;2022-12-18T04:50:47;101244.81;;;-5.08;63.22
19286;BME280;9776;50.798;6.430;2022-12-18T04:53:14;101237.00;;;-5.05;63.23
19286;BME280;9776;50.798;6.430;2022-12-18T04:55:41;101236.13;;;-5.02;63.20
19286;BME280;9776;50.798;6.430;2022-12-18T04:58:08;101238.66;;;-5.01;63.23
19286;BME280;9776;50.798;6.430;2022-12-18T05:00:34;101235.28;;;-5.03;63.32
19286;BME280;9776;50.798;6.430;2022-12-18T05:03:01;101231.81;;;-5.02;63.22
19286;BME280;9776;50.798;6.430;2022-12-18T05:05:28;101239.47;;;-4.99;63.23
19286;BME280;9776;50.798;6.430;2022-12-18T05:07:56;101241.22;;;-5.01;63.33
19286;BME280;9776;50.798;6.430;2022-12-18T05:10:23;101247.19;;;-4.99;63.41
19286;BME280;9776;50.798;6.430;2022-12-18T05:12:49;101247.19;;;-4.97;63.37
19286;BME280;9776;50.798;6.430;2022-12-18T05:15:27;101248.03;;;-4.97;63.49
19286;BME280;9776;50.798;6.430;2022-12-18T05:17:53;101258.28;;;-4.94;63.36
19286;BME280;9776;50.798;6.430;2022-12-18T05:20:20;101259.94;;;-4.93;63.37
19286;BME280;9776;50.798;6.430;2022-12-18T05:22:47;101274.53;;;-4.92;63.32
19286;BME280;9776;50.798;6.430;2022-12-18T05:25:15;101276.28;;;-4.94;63.46
19286;BME280;9776;50.798;6.430;2022-12-18T05:27:42;101280.53;;;-4.93;63.48
19286;BME280;9776;50.798;6.430;2022-12-18T05:30:09;101289.09;;;-4.91;63.52
19286;BME280;9776;50.798;6.430;2022-12-18T05:32:36;101292.50;;;-4.89;63.45
19286;BME280;9776;50.798;6.430;2022-12-18T05:35:05;101293.34;;;-4.88;63.45
19286;BME280;9776;50.798;6.430;2022-12-18T05:37:32;101313.97;;;-4.90;63.42
19286;BME280;9776;50.798;6.430;2022-12-18T05:39:59;101308.84;;;-4.91;63.55
19286;BME280;9776;50.798;6.430;2022-12-18T05:42:27;101309.72;;;-4.92;63.55
19286;BME280;9776;50.798;6.430;2022-12-18T05:44:54;101315.88;;;-5.01;63.74
19286;BME280;9776;50.798;6.430;2022-12-18T05:47:21;101310.78;;;-5.04;63.87
19286;BME280;9776;50.798;6.430;2022-12-18T05:49:47;101317.75;;;-5.10;63.96
19286;BME280;9776;50.798;6.430;2022-12-18T05:52:14;101316.88;;;-5.08;63.86
19286;BME280;9776;50.798;6.430;2022-12-18T05:54:41;101326.19;;;-5.01;63.92
19286;BME280;9776;50.798;6.430;2022-12-18T05:57:08;101316.75;;;-5.00;63.70
19286;BME280;9776;50.798;6.430;2022-12-18T05:59:36;101324.38;;;-4.96;63.54
19286;BME280;9776;50.798;6.430;2022-12-18T06:02:03;101323.50;;;-4.95;63.61
19286;BME280;9776;50.798;6.430;2022-12-18T06:04:29;101322.63;;;-4.94;63.46
19286;BME280;9776;50.798;6.430;2022-12-18T06:06:56;101315.09;;;-5.04;63.68
19286;BME280;9776;50.798;6.430;2022-12-18T06:09:23;101316.19;;;-5.18;63.76
19286;BME280;9776;50.798;6.430;2022-12-18T06:11:51;101321.53;;;-5.28;64.00
19286;BME280;9776;50.798;6.430;2022-12-18T06:14:18;101327.59;;;-5.34;64.17
19286;BME280;9776;50.798;6.430;2022-12-18T06:16:46;101330.16;;;-5.34;64.18
19286;BME280;9776;50.798;6.430;2022-12-18T06:19:15;101318.22;;;-5.36;64.17
19286;BME280;9776;50.798;6.430;2022-12-18T06:21:42;101306.25;;;-5.39;64.15
19286;BME280;9776;50.798;6.430;2022-12-18T06:24:08;101295.19;;;-5.44;64.16
19286;BME280;9776;50.798;6.430;2022-12-18T06:26:36;101296.09;;;-5.48;64.24
19286;BME280;9776;50.798;6.430;2022-12-18T06:29:03;101298.72;;;-5.51;64.26
19286;BME280;9776;50.798;6.430;2022-12-18T06:31:30;101290.97;;;-5.46;64.30
19286;BME280;9776;50.798;6.430;2022-12-18T06:33:58;101287.47;;;-5.44;64.16
19286;BME280;9776;50.798;6.430;2022-12-18T06:36:25;101277.19;;;-5.44;64.07
19286;BME280;9776;50.798;6.430;2022-12-18T06:38:58;101277.19;;;-5.44;64.11
19286;BME280;9776;50.798;6.430;2022-12-18T06:41:25;101284.84;;;-5.41;63.95
19286;BME280;9776;50.798;6.430;2022-12-18T06:43:52;101277.09;;;-5.38;63.98
19286;BME280;9776;50.798;6.430;2022-12-18T06:46:19;101279.59;;;-5.35;63.95
19286;BME280;9776;50.798;6.430;2022-12-18T06:48:47;101289.81;;;-5.30;63.84
19286;BME280;9776;50.798;6.430;2022-12-18T06:51:18;101280.38;;;-5.28;63.75
19286;BME280;9776;50.798;6.430;2022-12-18T06:53:45;101285.50;;;-5.28;63.80
19286;BME280;9776;50.798;6.430;2022-12-18T06:56:12;101287.22;;;-5.29;63.90
19286;BME280;9776;50.798;6.430;2022-12-18T06:58:39;101276.09;;;-5.29;63.86
19286;BME280;9776;50.798;6.430;2022-12-18T07:01:08;101278.59;;;-5.26;63.82
19286;BME280;9776;50.798;6.430;2022-12-18T07:03:36;101278.59;;;-5.26;63.99
19286;BME280;9776;50.798;6.430;2022-12-18T07:06:03;101281.13;;;-5.25;64.03
19286;BME280;9776;50.798;6.430;2022-12-18T07:08:32;101275.06;;;-5.22;63.91
19286;BME280;9776;50.798;6.430;2022-12-18T07:10:59;101288.78;;;-5.22;64.02
19286;BME280;9776;50.798;6.430;2022-12-18T07:13:25;101282.78;;;-5.22;64.15
19286;BME280;9776;50.798;6.430;2022-12-18T07:15:52;101273.34;;;-5.22;64.04
19286;BME280;9776;50.798;6.430;2022-12-18T07:18:19;101282.78;;;-5.21;64.22
19286;BME280;9776;50.798;6.430;2022-12-18T07:20:45;101280.16;;;-5.19;64.19
19286;BME280;9776;50.798;6.430;2022-12-18T07:23:12;101283.53;;;-5.16;64.11
19286;BME280;9776;50.798;6.430;2022-12-18T07:25:41;101292.94;;;-5.13;64.05
19286;BME280;9776;50.798;6.430;2022-12-18T07:28:07;101281.13;;;-5.23;64.32
19286;BME280;9776;50.798;6.430;2022-12-18T07:30:36;101281.97;;;-5.24;64.48
19286;BME280;9776;50.798;6.430;2022-12-18T07:33:03;101282.75;;;-5.19;64.46
19286;BME280;9776;50.798;6.430;2022-12-18T07:35:30;101281.88;;;-5.17;64.32
19286;BME280;9776;50.798;6.430;2022-12-18T07:37:57;101285.22;;;-5.13;64.25
19286;BME280;9776;50.798;6.430;2022-12-18T07:40:23;101279.16;;;-5.09;64.18
19286;BME280;9776;50.798;6.430;2022-12-18T07:42:52;101275.69;;;-5.08;64.11
19286;BME280;9776;50.798;6.430;2022-12-18T07:45:18;101274.84;;;-5.10;64.09
19286;BME280;9776;50.798;6.430;2022-12-18T07:47:45;101262.78;;;-5.06;64.17
19286;BME280;9776;50.798;6.430;2022-12-18T07:50:12;101249.00;;;-5.04;64.09
19286;BME280;9776;50.798;6.430;2022-12-18T07:52:39;101241.19;;;-4.98;64.04
19286;BME280;9776;50.798;6.430;2022-12-18T07:55:06;101237.63;;;-4.92;63.97
19286;BME280;9776;50.798;6.430;2022-12-18T07:57:33;101241.81;;;-4.87;63.88
19286;BME280;9776;50.798;6.430;2022-12-18T08:00:02;101238.25;;;-4.80;63.95
19286;BME280;9776;50.798;6.430;2022-12-18T08:02:30;101226.06;;;-4.72;63.75
19286;BME280;9776;50.798;6.430;2022-12-18T08:04:57;101218.13;;;-4.63;63.68
19286;BME280;9776;50.798;6.430;2022-12-18T08:07:23;101215.38;;;-4.55;63.66
19286;BME280;9776;50.798;6.430;2022-12-18T08:09:50;101212.69;;;-4.49;63.65
19286;BME280;9776;50.798;6.430;2022-12-18T08:12:17;101213.34;;;-4.41;63.64
19286;BME280;9776;50.798;6.430;2022-12-18T08:14:44;101202.84;;;-4.32;63.59
19286;BME280;9776;50.798;6.430;2022-12-18T08:17:12;101201.94;;;-4.29;63.46
19286;BME280;9776;50.798;6.430;2022-12-18T08:19:38;101207.78;;;-4.23;63.63
19286;BME280;9776;50.798;6.430;2022-12-18T08:22:05;101200.00;;;-4.21;63.67
19286;BME280;9776;50.798;6.430;2022-12-18T08:24:33;101197.28;;;-4.15;63.63
19286;BME280;9776;50.798;6.430;2022-12-18T08:27:00;101193.78;;;-4.11;63.63
19286;BME280;9776;50.798;6.430;2022-12-18T08:29:27;101192.00;;;-4.09;63.63
19286;BME280;9776;50.798;6.430;2022-12-18T08:31:53;101196.28;;;-4.08;63.68
19286;BME280;9776;50.798;6.430;2022-12-18T08:34:22;101193.59;;;-4.04;63.71
19286;BME280;9776;50.798;6.430;2022-12-18T08:36:48;101200.50;;;-4.04;63.78
19286;BME280;9776;50.798;6.430;2022-12-18T08:39:15;101197.75;;;-3.98;63.67
19286;BME280;9776;50.798;6.430;2022-12-18T08:41:42;101207.09;;;-3.94;63.72
19286;BME280;9776;50.798;6.430;2022-12-18T08:44:29;101203.44;;;-3.84;63.48
19286;BME280;9776;50.798;6.430;2022-12-18T08:47:03;101206.69;;;-3.77;63.42
19286;BME280;9776;50.798;6.430;2022-12-18T08:49:32;101199.59;;;-3.68;63.43
19286;BME280;9776;50.798;6.430;2022-12-18T08:51:59;101204.53;;;-3.60;63.26
19286;BME280;9776;50.798;6.430;2022-12-18T08:54:27;101198.13;;;-3.46;63.20
19286;BME280;9776;50.798;6.430;2022-12-18T08:56:53;101201.28;;;-3.34;62.96
19286;BME280;9776;50.798;6.430;2022-12-18T08:59:20;101202.69;;;-3.23;62.87
19286;BME280;9776;50.798;6.430;2022-12-18T09:01:48;101197.31;;;-3.15;62.76
19286;BME280;9776;50.798;6.430;2022-12-18T09:04:15;101204.91;;;-3.09;62.83
19286;BME280;9776;50.798;6.430;2022-12-18T09:06:43;101214.25;;;-3.05;62.90
19286;BME280;9776;50.798;6.430;2022-12-18T09:09:10;101210.63;;;-2.98;62.78
19286;BME280;9776;50.798;6.430;2022-12-18T09:11:37;101198.41;;;-2.93;62.80
19286;BME280;9776;50.798;6.430;2022-12-18T09:14:04;101185.34;;;-2.89;62.64
19286;BME280;9776;50.798;6.430;2022-12-18T09:16:32;101181.69;;;-2.80;62.60
19286;BME280;9776;50.798;6.430;2022-12-18T09:19:01;101170.97;;;-2.68;62.53
19286;BME280;9776;50.798;6.430;2022-12-18T09:21:29;101165.63;;;-2.62;62.47
19286;BME280;9776;50.798;6.430;2022-12-18T09:23:58;101165.31;;;-2.51;62.17
19286;BME280;9776;50.798;6.430;2022-12-18T09:26:26;101168.34;;;-2.39;62.12
19286;BME280;9776;50.798;6.430;2022-12-18T09:28:53;101155.13;;;-2.28;62.00
19286;BME280;9776;50.798;6.430;2022-12-18T09:31:22;101155.72;;;-2.20;61.90
19286;BME280;9776;50.798;6.430;2022-12-18T09:33:49;101152.16;;;-2.17;61.97
19286;BME280;9776;50.798;6.430;2022-12-18T09:36:17;101156.31;;;-2.12;61.98
19286;BME280;9776;50.798;6.430;2022-12-18T09:38:44;101153.63;;;-2.09;61.85
19286;BME280;9776;50.798;6.430;2022-12-18T09:41:26;101140.31;;;-1.98;61.78
19286;BME280;9776;50.798;6.430;2022-12-18T09:43:58;101129.47;;;-1.83;61.74
19286;BME280;9776;50.798;6.430;2022-12-18T09:46:28;101139.31;;;-1.68;61.43
19286;BME280;9776;50.798;6.430;2022-12-18T09:49:02;101135.28;;;-1.52;61.28
19286;BME280;9776;50.798;6.430;2022-12-18T09:51:35;101132.09;;;-1.35;61.14
19286;BME280;9776;50.798;6.430;2022-12-18T09:54:06;101129.06;;;-1.23;61.02
19286;BME280;9776;50.798;6.430;2022-12-18T09:56:40;101126.13;;;-1.14;60.87
19286;BME280;9776;50.798;6.430;2022-12-18T09:59:16;101127.50;;;-1.04;60.82
19286;BME280;9776;50.798;6.430;2022-12-18T10:01:44;101131.50;;;-0.95;60.84
19286;BME280;9776;50.798;6.430;2022-12-18T10:04:11;101125.06;;;-0.85;60.73
19286;BME280;9776;50.798;6.430;2022-12-18T10:06:44;101122.97;;;-0.76;60.47
19286;BME280;9776;50.798;6.430;2022-12-18T10:09:23;101121.59;;;-0.63;60.47
19286;BME280;9776;50.798;6.430;2022-12-18T10:12:01;101117.66;;;-0.51;60.23
19286;BME280;9776;50.798;6.430;2022-12-18T10:14:36;101117.31;;;-0.42;60.12
19286;BME280;9776;50.798;6.430;2022-12-18T10:17:14;101112.13;;;-0.42;60.28
19286;BME280;9776;50.798;6.430;2022-12-18T10:19:47;101113.56;;;-0.35;60.21
19286;BME280;9776;50.798;6.430;2022-12-18T10:22:28;101111.50;;;-0.27;60.17
19286;BME280;9776;50.798;6.430;2022-12-18T10:25:02;101115.53;;;-0.20;60.03
19286;BME280;9776;50.798;6.430;2022-12-18T10:27:32;101115.59;;;-0.21;59.93
19286;BME280;9776;50.798;6.430;2022-12-18T10:30:01;101109.44;;;-0.19;60.17
19286;BME280;9776;50.798;6.430;2022-12-18T10:32:29;101092.41;;;-0.04;59.94
19286;BME280;9776;50.798;6.430;2022-12-18T10:35:00;101093.53;;;0.11;59.71
19286;BME280;9776;50.798;6.430;2022-12-18T10:37:33;101095.47;;;0.26;59.55
19286;BME280;9776;50.798;6.430;2022-12-18T10:40:09;101101.81;;;0.39;59.42
19286;BME280;9776;50.798;6.430;2022-12-18T10:42:38;101089.97;;;0.52;59.20
19286;BME280;9776;50.798;6.430;2022-12-18T10:45:10;101098.28;;;0.60;59.01
19286;BME280;9776;50.798;6.430;2022-12-18T10:47:42;101096.94;;;0.70;59.00
19286;BME280;9776;50.798;6.430;2022-12-18T10:50:19;101102.94;;;0.72;59.08
19286;BME280;9776;50.798;6.430;2022-12-18T10:52:57;101101.03;;;0.76;59.02
19286;BME280;9776;50.798;6.430;2022-12-18T10:55:31;101098.28;;;0.79;59.09
19286;BME280;9776;50.798;6.430;2022-12-18T10:58:15;101090.31;;;0.83;59.04
19286;BME280;9776;50.798;6.430;2022-12-18T11:00:43;101094.44;;;0.87;58.91
19286;BME280;9776;50.798;6.430;2022-12-18T11:03:30;101089.66;;;0.78;58.96
19286;BME280;9776;50.798;6.430;2022-12-18T11:06:09;101092.34;;;0.77;59.11
19286;BME280;9776;50.798;6.430;2022-12-18T11:08:36;101084.75;;;0.72;59.23
19286;BME280;9776;50.798;6.430;2022-12-18T11:11:07;101093.63;;;0.67;59.28
19286;BME280;9776;50.798;6.430;2022-12-18T11:13:55;101086.19;;;0.59;59.29
19286;BME280;9776;50.798;6.430;2022-12-18T11:16:24;101083.59;;;0.59;59.47
19286;BME280;9776;50.798;6.430;2022-12-18T11:18:52;101079.13;;;0.63;59.36
19286;BME280;9776;50.798;6.430;2022-12-18T11:21:19;101069.72;;;0.60;59.59
19286;BME280;9776;50.798;6.430;2022-12-18T11:23:49;101068.38;;;0.51;59.54
19286;BME280;9776;50.798;6.430;2022-12-18T11:26:17;101067.38;;;0.54;59.54
19286;BME280;9776;50.798;6.430;2022-12-18T11:28:47;101067.75;;;0.65;59.51
19286;BME280;9776;50.798;6.430;2022-12-18T11:31:25;101057.06;;;0.71;59.34
19286;BME280;9776;50.798;6.430;2022-12-18T11:34:02;101050.66;;;0.78;59.16
19286;BME280;9776;50.798;6.430;2022-12-18T11:36:34;101039.31;;;0.81;59.26
19286;BME280;9776;50.798;6.430;2022-12-18T11:39:11;101030.69;;;0.80;59.34
19286;BME280;9776;50.798;6.430;2022-12-18T11:41:41;101031.81;;;0.75;59.37
19286;BME280;9776;50.798;6.430;2022-12-18T11:44:33;101031.94;;;0.72;59.59
19286;BME280;9776;50.798;6.430;2022-12-18T11:47:08;101030.38;;;0.68;59.74
19286;BME280;9776;50.798;6.430;2022-12-18T11:49:39;101027.16;;;0.63;59.90
19286;BME280;9776;50.798;6.430;2022-12-18T11:52:16;101020.13;;;0.65;59.89
19286;BME280;9776;50.798;6.430;2022-12-18T11:54:44;101004.56;;;0.65;59.89
19286;BME280;9776;50.798;6.430;2022-12-18T11:57:28;101002.56;;;0.70;59.96
19286;BME280;9776;50.798;6.430;2022-12-18T12:00:11;100999.56;;;0.79;59.77
19286;BME280;9776;50.798;6.430;2022-12-18T12:02:57;101005.94;;;0.90;59.69
19286;BME280;9776;50.798;6.430;2022-12-18T12:05:38;101032.69;;;1.11;59.56
19286;BME280;9776;50.798;6.430;2022-12-18T12:08:12;101031.03;;;1.27;59.18
19286;BME280;9776;50.798;6.430;2022-12-18T12:10:52;101019.19;;;1.39;59.08
19286;BME280;9776;50.798;6.430;2022-12-18T12:13:33;101030.00;;;1.48;58.82
19286;BME280;9776;50.798;6.430;2022-12-18T12:16:11;101028.47;;;1.44;58.83
19286;BME280;9776;50.798;6.430;2022-12-18T12:18:53;101024.63;;;1.34;58.98
19286;BME280;9776;50.798;6.430;2022-12-18T12:21:23;101013.06;;;1.23;59.11
19286;BME280;9776;50.798;6.430;2022-12-18T12:23:57;101010.28;;;1.08;59.12
19286;BME280;9776;50.798;6.430;2022-12-18T12:26:32;101012.41;;;1.00;59.36
19286;BME280;9776;50.798;6.430;2022-12-18T12:29:05;101003.16;;;0.95;59.38
19286;BME280;9776;50.798;6.430;2022-12-18T12:31:45;100990.91;;;0.97;59.32
19286;BME280;9776;50.798;6.430;2022-12-18T12:34:19;100984.34;;;1.07;59.22
19286;BME280;9776;50.798;6.430;2022-12-18T12:37:03;100982.84;;;1.20;59.07
19286;BME280;9776;50.798;6.430;2022-12-18T12:39:36;100978.06;;;1.30;58.77
19286;BME280;9776;50.798;6.430;2022-12-18T12:42:04;100980.28;;;1.37;58.61
19286;BME280;9776;50.798;6.430;2022-12-18T12:44:51;100985.78;;;1.48;58.41
19286;BME280;9776;50.798;6.430;2022-12-18T12:47:25;100987.22;;;1.54;58.49
19286;BME280;9776;50.798;6.430;2022-12-18T12:49:54;100979.44;;;1.54;58.49
19286;BME280;9776;50.798;6.430;2022-12-18T12:52:28;100980.38;;;1.53;58.68
19286;BME280;9776;50.798;6.430;2022-12-18T12:54:58;100964.75;;;1.53;58.50
19286;BME280;9776;50.798;6.430;2022-12-18T12:57:30;100954.81;;;1.44;58.68
19286;BME280;9776;50.798;6.430;2022-12-18T13:00:03;100956.63;;;1.42;58.98
19286;BME280;9776;50.798;6.430;2022-12-18T13:02:35;100962.81;;;1.39;58.93
19286;BME280;9776;50.798;6.430;2022-12-18T13:05:11;100957.72;;;1.38;58.96
19286;BME280;9776;50.798;6.430;2022-12-18T13:07:47;100954.41;;;1.34;59.02
19286;BME280;9776;50.798;6.430;2022-12-18T13:10:31;100952.88;;;1.30;59.13
19286;BME280;9776;50.798;6.430;2022-12-18T13:13:00;100947.00;;;1.27;59.19
19286;BME280;9776;50.798;6.430;2022-12-18T13:15:32;100937.50;;;1.26;59.19
19286;BME280;9776;50.798;6.430;2022-12-18T13:18:10;100933.22;;;1.25;59.20